sensor_id;sensor_type;location;lat;lon;timestamp;temperature;humidity
43346;DHT22;28937;51.160;4.146;2023-06-19T00:01:09;24.80;86.10
43346;DHT22;28937;51.160;4.146;2023-06-19T00:03:35;24.70;86.10
43346;DHT22;28937;51.160;4.146;2023-06-19T00:06:01;24.70;86.10
43346;DHT22;28937;51.160;4.146;2023-06-19T00:08:26;24.70;86.30
43346;DHT22;28937;51.160;4.146;2023-06-19T00:10:52;24.70;86.60
43346;DHT22;28937;51.160;4.146;2023-06-19T00:13:17;24.70;86.70
43346;DHT22;28937;51.160;4.146;2023-06-19T00:15:44;24.70;86.90
43346;DHT22;28937;51.160;4.146;2023-06-19T00:18:10;24.60;87.10
43346;DHT22;28937;51.160;4.146;2023-06-19T00:20:36;24.60;87.30
43346;DHT22;28937;51.160;4.146;2023-06-19T00:23:01;24.60;87.50
43346;DHT22;28937;51.160;4.146;2023-06-19T00:25:27;24.60;87.70
43346;DHT22;28937;51.160;4.146;2023-06-19T00:27:52;24.60;87.90
43346;DHT22;28937;51.160;4.146;2023-06-19T00:30:18;24.50;87.80
43346;DHT22;28937;51.160;4.146;2023-06-19T00:32:43;24.50;88.10
43346;DHT22;28937;51.160;4.146;2023-06-19T00:35:16;24.50;88.20
43346;DHT22;28937;51.160;4.146;2023-06-19T00:37:43;24.50;88.40
43346;DHT22;28937;51.160;4.146;2023-06-19T00:40:23;24.50;88.40
43346;DHT22;28937;51.160;4.146;2023-06-19T00:42:51;24.50;88.70
43346;DHT22;28937;51.160;4.146;2023-06-19T00:45:16;24.40;88.50
43346;DHT22;28937;51.160;4.146;2023-06-19T00:47:42;24.40;88.70
43346;DHT22;28937;51.160;4.146;2023-06-19T00:50:08;24.40;88.90
43346;DHT22;28937;51.160;4.146;2023-06-19T00:52:34;24.40;89.10
43346;DHT22;28937;51.160;4.146;2023-06-19T00:55:00;24.40;89.30
43346;DHT22;28937;51.160;4.146;2023-06-19T00:57:25;24.30;89.30
43346;DHT22;28937;51.160;4.146;2023-06-19T00:59:51;24.30;89.40
43346;DHT22;28937;51.160;4.146;2023-06-19T01:02:19;24.30;89.70
43346;DHT22;28937;51.160;4.146;2023-06-19T01:04:51;24.30;89.80
43346;DHT22;28937;51.160;4.146;2023-06-19T01:07:22;24.30;90.00
43346;DHT22;28937;51.160;4.146;2023-06-19T01:10:02;24.30;90.00
43346;DHT22;28937;51.160;4.146;2023-06-19T01:12:44;24.30;90.20
43346;DHT22;28937;51.160;4.146;2023-06-19T01:15:13;24.20;90.20
43346;DHT22;28937;51.160;4.146;2023-06-19T01:17:40;24.20;90.20
43346;DHT22;28937;51.160;4.146;2023-06-19T01:20:06;24.20;90.30
43346;DHT22;28937;51.160;4.146;2023-06-19T01:22:36;24.20;90.40
43346;DHT22;28937;51.160;4.146;2023-06-19T01:25:02;24.20;90.40
43346;DHT22;28937;51.160;4.146;2023-06-19T01:27:29;24.20;90.50
43346;DHT22;28937;51.160;4.146;2023-06-19T01:29:56;24.10;90.50
43346;DHT22;28937;51.160;4.146;2023-06-19T01:35:07;24.10;90.80
43346;DHT22;28937;51.160;4.146;2023-06-19T01:37:36;24.10;90.80
43346;DHT22;28937;51.160;4.146;2023-06-19T01:40:04;24.10;90.80
43346;DHT22;28937;51.160;4.146;2023-06-19T01:42:31;24.10;90.90
43346;DHT22;28937;51.160;4.146;2023-06-19T01:44:58;24.10;91.00
43346;DHT22;28937;51.160;4.146;2023-06-19T01:47:23;24.10;91.00
43346;DHT22;28937;51.160;4.146;2023-06-19T01:49:49;24.10;91.10
43346;DHT22;28937;51.160;4.146;2023-06-19T01:52:15;24.10;91.10
43346;DHT22;28937;51.160;4.146;2023-06-19T01:54:40;24.10;91.20
43346;DHT22;28937;51.160;4.146;2023-06-19T01:57:06;24.00;91.20
43346;DHT22;28937;51.160;4.146;2023-06-19T01:59:32;24.00;91.30
43346;DHT22;28937;51.160;4.146;2023-06-19T02:01:57;24.00;91.40
43346;DHT22;28937;51.160;4.146;2023-06-19T02:04:23;24.00;91.40
43346;DHT22;28937;51.160;4.146;2023-06-19T02:06:48;24.00;91.40
43346;DHT22;28937;51.160;4.146;2023-06-19T02:09:14;24.00;91.40
43346;DHT22;28937;51.160;4.146;2023-06-19T02:11:39;24.00;91.50
43346;DHT22;28937;51.160;4.146;2023-06-19T02:14:05;23.90;91.60
43346;DHT22;28937;51.160;4.146;2023-06-19T02:16:30;24.00;91.60
43346;DHT22;28937;51.160;4.146;2023-06-19T02:18:56;24.00;91.60
43346;DHT22;28937;51.160;4.146;2023-06-19T02:21:22;23.90;91.60
43346;DHT22;28937;51.160;4.146;2023-06-19T02:23:48;23.90;91.70
43346;DHT22;28937;51.160;4.146;2023-06-19T02:26:13;24.00;91.70
43346;DHT22;28937;51.160;4.146;2023-06-19T02:28:39;23.90;91.70
43346;DHT22;28937;51.160;4.146;2023-06-19T02:31:04;23.90;91.70
43346;DHT22;28937;51.160;4.146;2023-06-19T02:33:30;23.80;91.60
43346;DHT22;28937;51.160;4.146;2023-06-19T02:35:55;23.90;91.70
43346;DHT22;28937;51.160;4.146;2023-06-19T02:38:25;23.80;91.50
43346;DHT22;28937;51.160;4.146;2023-06-19T02:40:51;23.90;91.50
43346;DHT22;28937;51.160;4.146;2023-06-19T02:43:16;23.80;91.40
43346;DHT22;28937;51.160;4.146;2023-06-19T02:45:42;23.80;91.40
43346;DHT22;28937;51.160;4.146;2023-06-19T02:48:07;23.80;91.30
43346;DHT22;28937;51.160;4.146;2023-06-19T02:50:33;23.80;91.20
43346;DHT22;28937;51.160;4.146;2023-06-19T02:52:59;23.80;90.90
43346;DHT22;28937;51.160;4.146;2023-06-19T02:55:25;23.80;90.70
43346;DHT22;28937;51.160;4.146;2023-06-19T02:57:50;23.80;90.60
43346;DHT22;28937;51.160;4.146;2023-06-19T03:00:16;23.80;90.50
43346;DHT22;28937;51.160;4.146;2023-06-19T03:02:42;23.70;90.30
43346;DHT22;28937;51.160;4.146;2023-06-19T03:05:12;23.70;90.30
43346;DHT22;28937;51.160;4.146;2023-06-19T03:07:40;23.70;90.20
43346;DHT22;28937;51.160;4.146;2023-06-19T03:10:06;23.70;90.10
43346;DHT22;28937;51.160;4.146;2023-06-19T03:12:31;23.70;90.10
43346;DHT22;28937;51.160;4.146;2023-06-19T03:14:57;23.70;90.00
43346;DHT22;28937;51.160;4.146;2023-06-19T03:17:22;23.70;89.80
43346;DHT22;28937;51.160;4.146;2023-06-19T03:19:48;23.60;89.80
43346;DHT22;28937;51.160;4.146;2023-06-19T03:22:13;23.60;89.80
43346;DHT22;28937;51.160;4.146;2023-06-19T03:24:39;23.60;89.80
43346;DHT22;28937;51.160;4.146;2023-06-19T03:27:04;23.60;89.80
43346;DHT22;28937;51.160;4.146;2023-06-19T03:29:30;23.60;89.60
43346;DHT22;28937;51.160;4.146;2023-06-19T03:31:56;23.60;89.60
43346;DHT22;28937;51.160;4.146;2023-06-19T03:34:21;23.60;89.60
43346;DHT22;28937;51.160;4.146;2023-06-19T03:36:47;23.60;89.50
43346;DHT22;28937;51.160;4.146;2023-06-19T03:39:13;23.60;89.40
43346;DHT22;28937;51.160;4.146;2023-06-19T03:41:38;23.60;89.30
43346;DHT22;28937;51.160;4.146;2023-06-19T03:44:04;23.60;89.40
43346;DHT22;28937;51.160;4.146;2023-06-19T03:46:30;23.60;89.40
43346;DHT22;28937;51.160;4.146;2023-06-19T03:48:55;23.50;89.40
43346;DHT22;28937;51.160;4.146;2023-06-19T03:51:21;23.50;89.30
43346;DHT22;28937;51.160;4.146;2023-06-19T03:53:46;23.50;89.30
43346;DHT22;28937;51.160;4.146;2023-06-19T03:56:12;23.50;89.30
43346;DHT22;28937;51.160;4.146;2023-06-19T03:58:37;23.40;89.10
43346;DHT22;28937;51.160;4.146;2023-06-19T04:01:03;23.40;89.20
43346;DHT22;28937;51.160;4.146;2023-06-19T04:03:30;23.50;89.30
43346;DHT22;28937;51.160;4.146;2023-06-19T04:05:56;23.40;89.60
43346;DHT22;28937;51.160;4.146;2023-06-19T04:08:21;23.40;89.80
43346;DHT22;28937;51.160;4.146;2023-06-19T04:10:47;23.40;89.70
43346;DHT22;28937;51.160;4.146;2023-06-19T04:13:13;23.40;89.80
43346;DHT22;28937;51.160;4.146;2023-06-19T04:15:38;23.40;89.80
43346;DHT22;28937;51.160;4.146;2023-06-19T04:18:04;23.40;89.70
43346;DHT22;28937;51.160;4.146;2023-06-19T04:20:30;23.40;89.60
43346;DHT22;28937;51.160;4.146;2023-06-19T04:22:55;23.30;89.40
43346;DHT22;28937;51.160;4.146;2023-06-19T04:25:21;23.30;89.60
43346;DHT22;28937;51.160;4.146;2023-06-19T04:27:46;23.30;89.40
43346;DHT22;28937;51.160;4.146;2023-06-19T04:30:12;23.30;89.30
43346;DHT22;28937;51.160;4.146;2023-06-19T04:32:38;23.30;89.30
43346;DHT22;28937;51.160;4.146;2023-06-19T04:35:07;23.30;89.20
43346;DHT22;28937;51.160;4.146;2023-06-19T04:37:32;23.30;89.50
43346;DHT22;28937;51.160;4.146;2023-06-19T04:39:58;23.20;88.90
43346;DHT22;28937;51.160;4.146;2023-06-19T04:42:24;23.20;89.00
43346;DHT22;28937;51.160;4.146;2023-06-19T04:44:51;23.20;89.10
43346;DHT22;28937;51.160;4.146;2023-06-19T04:47:19;23.20;89.10
43346;DHT22;28937;51.160;4.146;2023-06-19T04:49:45;23.20;89.10
43346;DHT22;28937;51.160;4.146;2023-06-19T04:52:10;23.20;88.90
43346;DHT22;28937;51.160;4.146;2023-06-19T04:54:36;23.20;88.90
43346;DHT22;28937;51.160;4.146;2023-06-19T04:57:02;23.10;88.80
43346;DHT22;28937;51.160;4.146;2023-06-19T04:59:28;23.20;89.00
43346;DHT22;28937;51.160;4.146;2023-06-19T05:01:56;23.10;89.00
43346;DHT22;28937;51.160;4.146;2023-06-19T05:04:21;23.10;89.00
43346;DHT22;28937;51.160;4.146;2023-06-19T05:06:50;23.10;89.00
43346;DHT22;28937;51.160;4.146;2023-06-19T05:09:16;23.10;88.80
43346;DHT22;28937;51.160;4.146;2023-06-19T05:11:41;23.10;88.90
43346;DHT22;28937;51.160;4.146;2023-06-19T05:14:07;23.10;88.90
43346;DHT22;28937;51.160;4.146;2023-06-19T05:16:36;23.10;89.00
43346;DHT22;28937;51.160;4.146;2023-06-19T05:19:01;23.00;89.00
43346;DHT22;28937;51.160;4.146;2023-06-19T05:21:27;23.10;88.50
43346;DHT22;28937;51.160;4.146;2023-06-19T05:23:52;23.10;89.00
43346;DHT22;28937;51.160;4.146;2023-06-19T05:26:18;23.10;88.70
43346;DHT22;28937;51.160;4.146;2023-06-19T05:28:44;23.10;88.60
43346;DHT22;28937;51.160;4.146;2023-06-19T05:31:10;23.10;88.70
43346;DHT22;28937;51.160;4.146;2023-06-19T05:33:35;23.20;88.70
43346;DHT22;28937;51.160;4.146;2023-06-19T05:36:01;23.20;88.50
43346;DHT22;28937;51.160;4.146;2023-06-19T05:38:27;23.20;88.50
43346;DHT22;28937;51.160;4.146;2023-06-19T05:40:55;23.20;88.50
43346;DHT22;28937;51.160;4.146;2023-06-19T05:43:21;23.20;88.60
43346;DHT22;28937;51.160;4.146;2023-06-19T05:45:48;23.20;88.60
43346;DHT22;28937;51.160;4.146;2023-06-19T05:48:13;23.20;88.70
43346;DHT22;28937;51.160;4.146;2023-06-19T05:50:39;23.20;88.60
43346;DHT22;28937;51.160;4.146;2023-06-19T05:53:05;23.20;88.90
43346;DHT22;28937;51.160;4.146;2023-06-19T05:55:31;23.20;88.50
43346;DHT22;28937;51.160;4.146;2023-06-19T05:57:56;23.30;88.40
43346;DHT22;28937;51.160;4.146;2023-06-19T06:00:22;23.30;88.10
43346;DHT22;28937;51.160;4.146;2023-06-19T06:02:48;23.30;88.20
43346;DHT22;28937;51.160;4.146;2023-06-19T06:05:13;23.30;88.10
43346;DHT22;28937;51.160;4.146;2023-06-19T06:07:39;23.30;87.30
43346;DHT22;28937;51.160;4.146;2023-06-19T06:10:05;23.40;87.10
43346;DHT22;28937;51.160;4.146;2023-06-19T06:12:34;23.40;87.30
43346;DHT22;28937;51.160;4.146;2023-06-19T06:15:04;23.40;87.70
43346;DHT22;28937;51.160;4.146;2023-06-19T06:17:30;23.40;87.70
43346;DHT22;28937;51.160;4.146;2023-06-19T06:19:55;23.40;88.10
43346;DHT22;28937;51.160;4.146;2023-06-19T06:22:21;23.40;88.30
43346;DHT22;28937;51.160;4.146;2023-06-19T06:24:46;23.40;88.10
43346;DHT22;28937;51.160;4.146;2023-06-19T06:27:12;23.50;88.20
43346;DHT22;28937;51.160;4.146;2023-06-19T06:29:39;23.50;88.20
43346;DHT22;28937;51.160;4.146;2023-06-19T06:32:08;23.60;88.00
43346;DHT22;28937;51.160;4.146;2023-06-19T06:34:34;23.60;87.80
43346;DHT22;28937;51.160;4.146;2023-06-19T06:37:00;23.60;87.40
43346;DHT22;28937;51.160;4.146;2023-06-19T06:39:26;23.60;87.20
43346;DHT22;28937;51.160;4.146;2023-06-19T06:41:52;23.60;87.00
43346;DHT22;28937;51.160;4.146;2023-06-19T06:44:17;23.70;86.80
43346;DHT22;28937;51.160;4.146;2023-06-19T06:46:43;23.70;86.50
43346;DHT22;28937;51.160;4.146;2023-06-19T06:49:08;23.70;86.20
43346;DHT22;28937;51.160;4.146;2023-06-19T06:51:34;23.70;86.20
43346;DHT22;28937;51.160;4.146;2023-06-19T06:53:59;23.80;85.90
43346;DHT22;28937;51.160;4.146;2023-06-19T06:56:25;23.80;85.80
43346;DHT22;28937;51.160;4.146;2023-06-19T06:58:51;23.80;85.60
43346;DHT22;28937;51.160;4.146;2023-06-19T07:01:16;23.90;85.30
43346;DHT22;28937;51.160;4.146;2023-06-19T07:03:42;23.90;85.30
43346;DHT22;28937;51.160;4.146;2023-06-19T07:06:07;23.90;85.10
43346;DHT22;28937;51.160;4.146;2023-06-19T07:08:33;23.90;85.00
43346;DHT22;28937;51.160;4.146;2023-06-19T07:10:58;24.00;85.00
43346;DHT22;28937;51.160;4.146;2023-06-19T07:13:25;24.00;84.90
43346;DHT22;28937;51.160;4.146;2023-06-19T07:15:50;24.00;84.90
43346;DHT22;28937;51.160;4.146;2023-06-19T07:18:16;24.00;84.70
43346;DHT22;28937;51.160;4.146;2023-06-19T07:20:41;24.00;84.70
43346;DHT22;28937;51.160;4.146;2023-06-19T07:23:08;24.00;84.80
43346;DHT22;28937;51.160;4.146;2023-06-19T07:25:34;24.00;84.90
43346;DHT22;28937;51.160;4.146;2023-06-19T07:28:00;24.10;84.80
43346;DHT22;28937;51.160;4.146;2023-06-19T07:30:26;24.10;84.80
43346;DHT22;28937;51.160;4.146;2023-06-19T07:32:52;24.10;84.80
43346;DHT22;28937;51.160;4.146;2023-06-19T07:35:18;24.10;84.60
43346;DHT22;28937;51.160;4.146;2023-06-19T07:37:44;24.10;84.50
43346;DHT22;28937;51.160;4.146;2023-06-19T07:40:10;24.20;84.60
43346;DHT22;28937;51.160;4.146;2023-06-19T07:42:36;24.20;84.50
43346;DHT22;28937;51.160;4.146;2023-06-19T07:45:02;24.20;84.30
43346;DHT22;28937;51.160;4.146;2023-06-19T07:47:28;24.20;84.20
43346;DHT22;28937;51.160;4.146;2023-06-19T07:49:53;24.20;84.00
43346;DHT22;28937;51.160;4.146;2023-06-19T07:52:19;24.20;84.10
43346;DHT22;28937;51.160;4.146;2023-06-19T07:54:55;24.30;84.00
43346;DHT22;28937;51.160;4.146;2023-06-19T07:57:21;24.30;83.80
43346;DHT22;28937;51.160;4.146;2023-06-19T07:59:50;24.30;84.00
43346;DHT22;28937;51.160;4.146;2023-06-19T08:02:16;24.30;83.90
43346;DHT22;28937;51.160;4.146;2023-06-19T08:04:42;24.30;84.00
43346;DHT22;28937;51.160;4.146;2023-06-19T08:07:07;24.30;83.90
43346;DHT22;28937;51.160;4.146;2023-06-19T08:09:33;24.30;83.60
43346;DHT22;28937;51.160;4.146;2023-06-19T08:11:59;24.40;83.60
43346;DHT22;28937;51.160;4.146;2023-06-19T08:14:24;24.40;83.20
43346;DHT22;28937;51.160;4.146;2023-06-19T08:16:50;24.40;83.10
43346;DHT22;28937;51.160;4.146;2023-06-19T08:19:15;24.40;83.20
43346;DHT22;28937;51.160;4.146;2023-06-19T08:21:41;24.40;82.80
43346;DHT22;28937;51.160;4.146;2023-06-19T08:24:07;24.40;83.20
43346;DHT22;28937;51.160;4.146;2023-06-19T08:26:32;24.40;83.00
43346;DHT22;28937;51.160;4.146;2023-06-19T08:28:58;24.40;82.90
43346;DHT22;28937;51.160;4.146;2023-06-19T08:31:23;24.40;83.00
43346;DHT22;28937;51.160;4.146;2023-06-19T08:33:54;24.50;83.10
43346;DHT22;28937;51.160;4.146;2023-06-19T08:36:19;24.50;83.10
43346;DHT22;28937;51.160;4.146;2023-06-19T08:38:45;24.50;83.10
43346;DHT22;28937;51.160;4.146;2023-06-19T08:41:15;24.50;82.80
43346;DHT22;28937;51.160;4.146;2023-06-19T08:43:41;24.50;82.90
43346;DHT22;28937;51.160;4.146;2023-06-19T08:46:10;24.60;83.00
43346;DHT22;28937;51.160;4.146;2023-06-19T08:48:37;24.60;82.90
43346;DHT22;28937;51.160;4.146;2023-06-19T08:51:04;24.60;82.90
43346;DHT22;28937;51.160;4.146;2023-06-19T08:53:33;24.60;82.90
43346;DHT22;28937;51.160;4.146;2023-06-19T08:56:00;24.60;83.00
43346;DHT22;28937;51.160;4.146;2023-06-19T08:58:26;24.60;83.10
43346;DHT22;28937;51.160;4.146;2023-06-19T09:00:51;24.70;83.20
43346;DHT22;28937;51.160;4.146;2023-06-19T09:03:21;24.60;83.10
43346;DHT22;28937;51.160;4.146;2023-06-19T09:05:47;24.60;83.20
43346;DHT22;28937;51.160;4.146;2023-06-19T09:08:17;24.70;83.10
43346;DHT22;28937;51.160;4.146;2023-06-19T09:10:53;24.70;83.20
43346;DHT22;28937;51.160;4.146;2023-06-19T09:13:19;24.70;83.00
43346;DHT22;28937;51.160;4.146;2023-06-19T09:15:45;24.70;83.10
43346;DHT22;28937;51.160;4.146;2023-06-19T09:18:11;24.80;83.10
43346;DHT22;28937;51.160;4.146;2023-06-19T09:20:40;24.80;83.00
43346;DHT22;28937;51.160;4.146;2023-06-19T09:23:10;24.80;83.00
43346;DHT22;28937;51.160;4.146;2023-06-19T09:25:53;24.80;83.20
43346;DHT22;28937;51.160;4.146;2023-06-19T09:28:22;24.80;83.00
43346;DHT22;28937;51.160;4.146;2023-06-19T09:30:56;24.90;83.30
43346;DHT22;28937;51.160;4.146;2023-06-19T09:33:26;24.80;83.20
43346;DHT22;28937;51.160;4.146;2023-06-19T09:35:54;24.90;83.20
43346;DHT22;28937;51.160;4.146;2023-06-19T09:38:25;24.90;83.20
43346;DHT22;28937;51.160;4.146;2023-06-19T09:40:52;24.90;83.20
43346;DHT22;28937;51.160;4.146;2023-06-19T09:43:37;24.90;83.20
43346;DHT22;28937;51.160;4.146;2023-06-19T09:46:05;24.90;83.00
43346;DHT22;28937;51.160;4.146;2023-06-19T09:48:32;25.00;83.30
43346;DHT22;28937;51.160;4.146;2023-06-19T09:51:12;25.00;83.10
43346;DHT22;28937;51.160;4.146;2023-06-19T09:53:43;25.00;83.00
43346;DHT22;28937;51.160;4.146;2023-06-19T09:56:09;25.00;82.60
43346;DHT22;28937;51.160;4.146;2023-06-19T09:58:36;25.00;83.00
43346;DHT22;28937;51.160;4.146;2023-06-19T10:01:04;25.10;83.10
43346;DHT22;28937;51.160;4.146;2023-06-19T10:03:31;25.10;83.00
43346;DHT22;28937;51.160;4.146;2023-06-19T10:05:58;25.10;82.80
43346;DHT22;28937;51.160;4.146;2023-06-19T10:08:38;25.10;82.50
43346;DHT22;28937;51.160;4.146;2023-06-19T10:11:04;25.10;82.50
43346;DHT22;28937;51.160;4.146;2023-06-19T10:13:35;25.10;82.60
43346;DHT22;28937;51.160;4.146;2023-06-19T10:16:02;25.10;82.50
43346;DHT22;28937;51.160;4.146;2023-06-19T10:18:27;25.10;82.40
43346;DHT22;28937;51.160;4.146;2023-06-19T10:20:56;25.20;82.40
43346;DHT22;28937;51.160;4.146;2023-06-19T10:23:23;25.20;82.50
43346;DHT22;28937;51.160;4.146;2023-06-19T10:25:57;25.20;82.20
43346;DHT22;28937;51.160;4.146;2023-06-19T10:28:24;25.30;82.00
43346;DHT22;28937;51.160;4.146;2023-06-19T10:31:06;25.30;82.20
43346;DHT22;28937;51.160;4.146;2023-06-19T10:33:34;25.30;84.20
43346;DHT22;28937;51.160;4.146;2023-06-19T10:36:01;25.30;85.60
43346;DHT22;28937;51.160;4.146;2023-06-19T10:38:28;25.30;89.90
43346;DHT22;28937;51.160;4.146;2023-06-19T10:40:54;25.40;89.10
43346;DHT22;28937;51.160;4.146;2023-06-19T10:43:24;25.40;85.60
43346;DHT22;28937;51.160;4.146;2023-06-19T10:45:53;25.40;84.70
43346;DHT22;28937;51.160;4.146;2023-06-19T10:48:26;25.40;85.10
43346;DHT22;28937;51.160;4.146;2023-06-19T10:50:52;25.50;87.70
43346;DHT22;28937;51.160;4.146;2023-06-19T10:53:29;25.50;87.70
43346;DHT22;28937;51.160;4.146;2023-06-19T10:55:56;25.50;87.30
43346;DHT22;28937;51.160;4.146;2023-06-19T10:58:23;25.50;86.60
43346;DHT22;28937;51.160;4.146;2023-06-19T11:00:48;25.50;85.90
43346;DHT22;28937;51.160;4.146;2023-06-19T11:03:14;25.50;85.90
43346;DHT22;28937;51.160;4.146;2023-06-19T11:05:44;25.50;84.90
43346;DHT22;28937;51.160;4.146;2023-06-19T11:08:09;25.60;86.10
43346;DHT22;28937;51.160;4.146;2023-06-19T11:10:35;25.50;83.90
43346;DHT22;28937;51.160;4.146;2023-06-19T11:13:01;25.50;85.10
43346;DHT22;28937;51.160;4.146;2023-06-19T11:15:34;25.60;86.00
43346;DHT22;28937;51.160;4.146;2023-06-19T11:18:01;25.60;85.80
43346;DHT22;28937;51.160;4.146;2023-06-19T11:20:27;25.60;85.80
43346;DHT22;28937;51.160;4.146;2023-06-19T11:22:58;25.60;83.90
43346;DHT22;28937;51.160;4.146;2023-06-19T11:25:34;25.60;85.30
43346;DHT22;28937;51.160;4.146;2023-06-19T11:28:00;25.70;83.40
43346;DHT22;28937;51.160;4.146;2023-06-19T11:30:33;25.60;85.80
43346;DHT22;28937;51.160;4.146;2023-06-19T11:32:59;25.60;85.50
43346;DHT22;28937;51.160;4.146;2023-06-19T11:35:32;25.60;85.20
43346;DHT22;28937;51.160;4.146;2023-06-19T11:37:59;25.70;84.40
43346;DHT22;28937;51.160;4.146;2023-06-19T11:40:25;25.70;84.60
43346;DHT22;28937;51.160;4.146;2023-06-19T11:42:54;25.70;84.80
43346;DHT22;28937;51.160;4.146;2023-06-19T11:45:20;25.70;83.90
43346;DHT22;28937;51.160;4.146;2023-06-19T11:47:47;25.70;83.80
43346;DHT22;28937;51.160;4.146;2023-06-19T11:50:14;25.70;84.10
43346;DHT22;28937;51.160;4.146;2023-06-19T11:52:46;25.70;83.40
43346;DHT22;28937;51.160;4.146;2023-06-19T11:55:13;25.80;82.50
43346;DHT22;28937;51.160;4.146;2023-06-19T11:57:41;25.80;81.70
43346;DHT22;28937;51.160;4.146;2023-06-19T12:00:16;25.80;81.20
43346;DHT22;28937;51.160;4.146;2023-06-19T12:02:43;25.80;82.70
43346;DHT22;28937;51.160;4.146;2023-06-19T12:05:09;25.80;82.20
43346;DHT22;28937;51.160;4.146;2023-06-19T12:07:36;25.80;82.30
43346;DHT22;28937;51.160;4.146;2023-06-19T12:10:02;25.80;82.10
43346;DHT22;28937;51.160;4.146;2023-06-19T12:12:29;25.80;81.90
43346;DHT22;28937;51.160;4.146;2023-06-19T12:14:56;25.80;81.50
43346;DHT22;28937;51.160;4.146;2023-06-19T12:17:22;25.90;81.30
43346;DHT22;28937;51.160;4.146;2023-06-19T12:19:47;25.90;80.90
43346;DHT22;28937;51.160;4.146;2023-06-19T12:22:14;25.90;80.90
43346;DHT22;28937;51.160;4.146;2023-06-19T12:24:39;25.90;79.90
43346;DHT22;28937;51.160;4.146;2023-06-19T12:27:05;25.90;80.70
43346;DHT22;28937;51.160;4.146;2023-06-19T12:29:30;25.90;80.10
43346;DHT22;28937;51.160;4.146;2023-06-19T12:32:01;25.90;79.10
43346;DHT22;28937;51.160;4.146;2023-06-19T12:34:28;25.90;77.90
43346;DHT22;28937;51.160;4.146;2023-06-19T12:36:53;25.90;77.90
43346;DHT22;28937;51.160;4.146;2023-06-19T12:39:20;25.90;79.50
43346;DHT22;28937;51.160;4.146;2023-06-19T12:41:46;25.90;79.80
43346;DHT22;28937;51.160;4.146;2023-06-19T12:44:11;26.00;80.00
43346;DHT22;28937;51.160;4.146;2023-06-19T12:46:38;26.00;80.00
43346;DHT22;28937;51.160;4.146;2023-06-19T12:49:05;26.00;79.70
43346;DHT22;28937;51.160;4.146;2023-06-19T12:51:31;26.00;78.50
43346;DHT22;28937;51.160;4.146;2023-06-19T12:53:57;26.00;79.00
43346;DHT22;28937;51.160;4.146;2023-06-19T12:56:23;26.00;79.30
43346;DHT22;28937;51.160;4.146;2023-06-19T12:58:48;26.00;79.30
43346;DHT22;28937;51.160;4.146;2023-06-19T13:01:14;26.00;79.00
43346;DHT22;28937;51.160;4.146;2023-06-19T13:03:39;26.00;79.00
43346;DHT22;28937;51.160;4.146;2023-06-19T13:06:05;26.00;78.30
43346;DHT22;28937;51.160;4.146;2023-06-19T13:08:31;26.00;78.90
43346;DHT22;28937;51.160;4.146;2023-06-19T13:10:56;26.00;79.20
43346;DHT22;28937;51.160;4.146;2023-06-19T13:13:22;26.00;78.60
43346;DHT22;28937;51.160;4.146;2023-06-19T13:15:47;26.10;79.50
43346;DHT22;28937;51.160;4.146;2023-06-19T13:18:13;26.10;79.40
43346;DHT22;28937;51.160;4.146;2023-06-19T13:20:38;26.10;77.60
43346;DHT22;28937;51.160;4.146;2023-06-19T13:23:04;26.10;76.90
43346;DHT22;28937;51.160;4.146;2023-06-19T13:25:31;26.10;78.90
43346;DHT22;28937;51.160;4.146;2023-06-19T13:27:58;26.10;78.70
43346;DHT22;28937;51.160;4.146;2023-06-19T13:30:23;26.10;78.60
43346;DHT22;28937;51.160;4.146;2023-06-19T13:32:49;26.20;78.60
43346;DHT22;28937;51.160;4.146;2023-06-19T13:35:14;26.10;79.20
43346;DHT22;28937;51.160;4.146;2023-06-19T13:37:40;26.10;79.10
43346;DHT22;28937;51.160;4.146;2023-06-19T13:40:07;26.20;78.40
43346;DHT22;28937;51.160;4.146;2023-06-19T13:42:33;26.20;78.40
43346;DHT22;28937;51.160;4.146;2023-06-19T13:45:01;26.20;77.90
43346;DHT22;28937;51.160;4.146;2023-06-19T13:47:27;26.20;78.10
43346;DHT22;28937;51.160;4.146;2023-06-19T13:49:53;26.20;78.60
43346;DHT22;28937;51.160;4.146;2023-06-19T13:52:18;26.20;77.50
43346;DHT22;28937;51.160;4.146;2023-06-19T13:54:44;26.20;76.60
43346;DHT22;28937;51.160;4.146;2023-06-19T13:57:09;26.30;77.90
43346;DHT22;28937;51.160;4.146;2023-06-19T13:59:36;26.20;78.40
43346;DHT22;28937;51.160;4.146;2023-06-19T14:02:01;26.20;78.10
43346;DHT22;28937;51.160;4.146;2023-06-19T14:04:28;26.20;78.30
43346;DHT22;28937;51.160;4.146;2023-06-19T14:06:53;26.30;78.10
43346;DHT22;28937;51.160;4.146;2023-06-19T14:09:21;26.30;74.90
43346;DHT22;28937;51.160;4.146;2023-06-19T14:11:47;26.30;76.80
43346;DHT22;28937;51.160;4.146;2023-06-19T14:14:12;26.30;77.20
43346;DHT22;28937;51.160;4.146;2023-06-19T14:16:38;26.30;75.90
43346;DHT22;28937;51.160;4.146;2023-06-19T14:19:04;26.30;76.50
43346;DHT22;28937;51.160;4.146;2023-06-19T14:21:29;26.30;75.80
43346;DHT22;28937;51.160;4.146;2023-06-19T14:23:55;26.30;75.20
43346;DHT22;28937;51.160;4.146;2023-06-19T14:26:20;26.30;77.10
43346;DHT22;28937;51.160;4.146;2023-06-19T14:28:46;26.30;76.90
43346;DHT22;28937;51.160;4.146;2023-06-19T14:31:12;26.30;77.30
43346;DHT22;28937;51.160;4.146;2023-06-19T14:33:37;26.30;74.40
43346;DHT22;28937;51.160;4.146;2023-06-19T14:36:03;26.40;77.40
43346;DHT22;28937;51.160;4.146;2023-06-19T14:38:29;26.30;74.40
43346;DHT22;28937;51.160;4.146;2023-06-19T14:41:02;26.40;74.80
43346;DHT22;28937;51.160;4.146;2023-06-19T14:43:28;26.40;76.50
43346;DHT22;28937;51.160;4.146;2023-06-19T14:45:54;26.40;76.50
43346;DHT22;28937;51.160;4.146;2023-06-19T14:48:19;26.40;76.50
43346;DHT22;28937;51.160;4.146;2023-06-19T14:50:45;26.40;75.80
43346;DHT22;28937;51.160;4.146;2023-06-19T14:53:10;26.40;75.50
43346;DHT22;28937;51.160;4.146;2023-06-19T14:55:36;26.40;76.90
43346;DHT22;28937;51.160;4.146;2023-06-19T14:58:05;26.40;77.10
43346;DHT22;28937;51.160;4.146;2023-06-19T15:00:30;26.40;77.10
43346;DHT22;28937;51.160;4.146;2023-06-19T15:02:56;26.40;76.80
43346;DHT22;28937;51.160;4.146;2023-06-19T15:05:21;26.40;77.10
43346;DHT22;28937;51.160;4.146;2023-06-19T15:07:47;26.40;77.20
43346;DHT22;28937;51.160;4.146;2023-06-19T15:10:13;26.40;77.10
43346;DHT22;28937;51.160;4.146;2023-06-19T15:12:38;26.50;77.10
43346;DHT22;28937;51.160;4.146;2023-06-19T15:15:04;26.40;76.80
43346;DHT22;28937;51.160;4.146;2023-06-19T15:17:30;26.40;77.10
43346;DHT22;28937;51.160;4.146;2023-06-19T15:19:56;26.40;76.60
43346;DHT22;28937;51.160;4.146;2023-06-19T15:22:23;26.50;76.80
43346;DHT22;28937;51.160;4.146;2023-06-19T15:24:49;26.50;77.00
43346;DHT22;28937;51.160;4.146;2023-06-19T15:27:15;26.50;77.50
43346;DHT22;28937;51.160;4.146;2023-06-19T15:29:40;26.50;77.20